sensor_id;sensor_type;location;lat;lon;timestamp;temperature;humidity
78896;HTU21D;68284;59.124;37.910;2023-05-16T00:02:26;15.26;55.95
78896;HTU21D;68284;59.124;37.910;2023-05-16T00:04:52;15.26;56.30
78896;HTU21D;68284;59.124;37.910;2023-05-16T00:07:18;15.27;56.64
78896;HTU21D;68284;59.124;37.910;2023-05-16T00:09:44;15.25;56.79
78896;HTU21D;68284;59.124;37.910;2023-05-16T00:12:10;15.24;56.64
78896;HTU21D;68284;59.124;37.910;2023-05-16T00:14:37;15.19;56.34
78896;HTU21D;68284;59.124;37.910;2023-05-16T00:17:03;15.09;56.89
78896;HTU21D;68284;59.124;37.910;2023-05-16T00:19:37;14.86;57.80
78896;HTU21D;68284;59.124;37.910;2023-05-16T00:22:06;14.68;58.86
78896;HTU21D;68284;59.124;37.910;2023-05-16T00:24:38;14.54;59.83
78896;HTU21D;68284;59.124;37.910;2023-05-16T00:27:04;14.44;60.79
78896;HTU21D;68284;59.124;37.910;2023-05-16T00:29:30;14.38;61.29
78896;HTU21D;68284;59.124;37.910;2023-05-16T00:31:57;14.35;61.13
78896;HTU21D;68284;59.124;37.910;2023-05-16T00:34:23;14.34;62.31
78896;HTU21D;68284;59.124;37.910;2023-05-16T00:36:52;14.34;63.20
78896;HTU21D;68284;59.124;37.910;2023-05-16T00:39:18;14.36;63.68
78896;HTU21D;68284;59.124;37.910;2023-05-16T00:41:45;14.34;63.49
78896;HTU21D;68284;59.124;37.910;2023-05-16T00:44:11;14.33;63.27
78896;HTU21D;68284;59.124;37.910;2023-05-16T00:46:37;14.32;63.47
78896;HTU21D;68284;59.124;37.910;2023-05-16T00:49:04;14.29;63.85
78896;HTU21D;68284;59.124;37.910;2023-05-16T00:51:31;14.27;63.94
78896;HTU21D;68284;59.124;37.910;2023-05-16T00:53:57;14.24;64.16
78896;HTU21D;68284;59.124;37.910;2023-05-16T00:56:24;14.24;64.72
78896;HTU21D;68284;59.124;37.910;2023-05-16T00:58:50;14.26;65.24
78896;HTU21D;68284;59.124;37.910;2023-05-16T01:01:17;14.28;65.58
78896;HTU21D;68284;59.124;37.910;2023-05-16T01:03:45;14.29;65.83
78896;HTU21D;68284;59.124;37.910;2023-05-16T01:06:12;14.28;65.63
78896;HTU21D;68284;59.124;37.910;2023-05-16T01:08:38;14.25;65.18
78896;HTU21D;68284;59.124;37.910;2023-05-16T01:14:28;14.18;65.34
78896;HTU21D;68284;59.124;37.910;2023-05-16T01:17:04;14.14;64.83
78896;HTU21D;68284;59.124;37.910;2023-05-16T01:25:34;14.15;64.79
78896;HTU21D;68284;59.124;37.910;2023-05-16T01:28:04;14.15;64.88
78896;HTU21D;68284;59.124;37.910;2023-05-16T01:30:33;14.19;65.01
78896;HTU21D;68284;59.124;37.910;2023-05-16T01:33:00;14.19;65.12
78896;HTU21D;68284;59.124;37.910;2023-05-16T01:35:27;14.21;65.24
78896;HTU21D;68284;59.124;37.910;2023-05-16T01:38:04;14.25;65.58
78896;HTU21D;68284;59.124;37.910;2023-05-16T01:40:44;14.29;65.39
78896;HTU21D;68284;59.124;37.910;2023-05-16T01:43:16;14.38;65.24
78896;HTU21D;68284;59.124;37.910;2023-05-16T01:45:49;14.48;65.30
78896;HTU21D;68284;59.124;37.910;2023-05-16T01:48:21;14.54;65.23
78896;HTU21D;68284;59.124;37.910;2023-05-16T01:50:53;14.62;64.85
78896;HTU21D;68284;59.124;37.910;2023-05-16T01:53:30;14.69;62.72
78896;HTU21D;68284;59.124;37.910;2023-05-16T01:56:00;14.84;60.46
78896;HTU21D;68284;59.124;37.910;2023-05-16T01:58:30;15.00;58.13
78896;HTU21D;68284;59.124;37.910;2023-05-16T02:01:04;15.21;56.03
78896;HTU21D;68284;59.124;37.910;2023-05-16T02:03:32;15.37;55.16
78896;HTU21D;68284;59.124;37.910;2023-05-16T02:05:59;15.52;54.96
78896;HTU21D;68284;59.124;37.910;2023-05-16T02:08:27;15.63;55.63
78896;HTU21D;68284;59.124;37.910;2023-05-16T02:10:53;15.71;56.37
78896;HTU21D;68284;59.124;37.910;2023-05-16T02:13:20;15.80;56.19
78896;HTU21D;68284;59.124;37.910;2023-05-16T02:15:46;15.89;54.76
78896;HTU21D;68284;59.124;37.910;2023-05-16T02:18:13;16.00;53.77
78896;HTU21D;68284;59.124;37.910;2023-05-16T02:20:39;16.08;54.00
78896;HTU21D;68284;59.124;37.910;2023-05-16T02:23:05;16.14;54.48
78896;HTU21D;68284;59.124;37.910;2023-05-16T02:25:36;16.17;55.14
78896;HTU21D;68284;59.124;37.910;2023-05-16T02:28:02;16.25;55.30
78896;HTU21D;68284;59.124;37.910;2023-05-16T02:30:29;16.28;55.08
78896;HTU21D;68284;59.124;37.910;2023-05-16T02:32:55;16.36;54.91
78896;HTU21D;68284;59.124;37.910;2023-05-16T02:35:21;16.39;54.72
78896;HTU21D;68284;59.124;37.910;2023-05-16T02:37:47;16.46;54.63
78896;HTU21D;68284;59.124;37.910;2023-05-16T02:40:13;16.51;54.39
78896;HTU21D;68284;59.124;37.910;2023-05-16T02:42:40;16.57;54.14
78896;HTU21D;68284;59.124;37.910;2023-05-16T02:45:07;16.64;54.16
78896;HTU21D;68284;59.124;37.910;2023-05-16T02:47:33;16.71;54.30
78896;HTU21D;68284;59.124;37.910;2023-05-16T02:49:59;16.74;54.30
78896;HTU21D;68284;59.124;37.910;2023-05-16T02:52:25;16.78;54.25
78896;HTU21D;68284;59.124;37.910;2023-05-16T02:54:54;16.85;54.17
78896;HTU21D;68284;59.124;37.910;2023-05-16T02:57:20;16.91;53.65
78896;HTU21D;68284;59.124;37.910;2023-05-16T02:59:46;17.00;53.39
78896;HTU21D;68284;59.124;37.910;2023-05-16T03:02:12;17.07;53.30
78896;HTU21D;68284;59.124;37.910;2023-05-16T03:04:39;17.15;53.07
78896;HTU21D;68284;59.124;37.910;2023-05-16T03:07:05;17.25;52.72
78896;HTU21D;68284;59.124;37.910;2023-05-16T03:09:31;17.34;52.58
78896;HTU21D;68284;59.124;37.910;2023-05-16T03:11:57;17.41;52.46
78896;HTU21D;68284;59.124;37.910;2023-05-16T03:14:24;17.50;52.33
78896;HTU21D;68284;59.124;37.910;2023-05-16T03:16:50;17.59;52.08
78896;HTU21D;68284;59.124;37.910;2023-05-16T03:19:18;17.64;52.24
78896;HTU21D;68284;59.124;37.910;2023-05-16T03:21:44;17.68;52.46
78896;HTU21D;68284;59.124;37.910;2023-05-16T03:24:17;17.70;52.80
78896;HTU21D;68284;59.124;37.910;2023-05-16T03:26:43;17.74;53.04
78896;HTU21D;68284;59.124;37.910;2023-05-16T03:29:09;17.77;52.82
78896;HTU21D;68284;59.124;37.910;2023-05-16T03:31:35;17.85;52.38
78896;HTU21D;68284;59.124;37.910;2023-05-16T03:34:02;17.93;51.91
78896;HTU21D;68284;59.124;37.910;2023-05-16T03:36:28;18.02;51.52
78896;HTU21D;68284;59.124;37.910;2023-05-16T03:38:56;18.11;50.97
78896;HTU21D;68284;59.124;37.910;2023-05-16T03:41:22;18.20;50.70
78896;HTU21D;68284;59.124;37.910;2023-05-16T03:43:48;18.28;50.44
78896;HTU21D;68284;59.124;37.910;2023-05-16T03:46:14;18.39;49.73
78896;HTU21D;68284;59.124;37.910;2023-05-16T03:48:41;18.51;49.22
78896;HTU21D;68284;59.124;37.910;2023-05-16T03:51:07;18.61;49.08
78896;HTU21D;68284;59.124;37.910;2023-05-16T03:53:33;18.70;48.99
78896;HTU21D;68284;59.124;37.910;2023-05-16T03:55:59;18.80;48.88
78896;HTU21D;68284;59.124;37.910;2023-05-16T03:58:25;18.88;48.81
78896;HTU21D;68284;59.124;37.910;2023-05-16T04:00:51;18.97;48.74
78896;HTU21D;68284;59.124;37.910;2023-05-16T04:03:17;19.03;48.71
78896;HTU21D;68284;59.124;37.910;2023-05-16T04:05:43;19.09;49.02
78896;HTU21D;68284;59.124;37.910;2023-05-16T04:08:10;19.12;49.27
78896;HTU21D;68284;59.124;37.910;2023-05-16T04:10:36;19.18;49.21
78896;HTU21D;68284;59.124;37.910;2023-05-16T04:13:02;19.24;48.71
78896;HTU21D;68284;59.124;37.910;2023-05-16T04:15:28;19.31;47.99
78896;HTU21D;68284;59.124;37.910;2023-05-16T04:17:54;19.37;47.71
78896;HTU21D;68284;59.124;37.910;2023-05-16T04:20:21;19.43;46.46
78896;HTU21D;68284;59.124;37.910;2023-05-16T04:22:47;19.47;45.32
78896;HTU21D;68284;59.124;37.910;2023-05-16T04:25:20;19.54;44.38
78896;HTU21D;68284;59.124;37.910;2023-05-16T04:27:46;19.58;43.74
78896;HTU21D;68284;59.124;37.910;2023-05-16T04:30:13;19.63;43.67
78896;HTU21D;68284;59.124;37.910;2023-05-16T04:32:39;19.69;43.41
78896;HTU21D;68284;59.124;37.910;2023-05-16T04:35:06;19.74;43.19
78896;HTU21D;68284;59.124;37.910;2023-05-16T04:37:35;19.82;42.93
78896;HTU21D;68284;59.124;37.910;2023-05-16T04:40:01;19.89;42.63
78896;HTU21D;68284;59.124;37.910;2023-05-16T04:42:28;19.98;42.42
78896;HTU21D;68284;59.124;37.910;2023-05-16T04:44:54;20.04;42.42
78896;HTU21D;68284;59.124;37.910;2023-05-16T04:47:21;20.07;42.36
78896;HTU21D;68284;59.124;37.910;2023-05-16T04:49:47;20.16;42.31
78896;HTU21D;68284;59.124;37.910;2023-05-16T04:52:13;20.24;42.18
78896;HTU21D;68284;59.124;37.910;2023-05-16T04:54:39;20.31;42.26
78896;HTU21D;68284;59.124;37.910;2023-05-16T04:57:05;20.36;42.30
78896;HTU21D;68284;59.124;37.910;2023-05-16T04:59:31;20.43;42.25
78896;HTU21D;68284;59.124;37.910;2023-05-16T05:01:58;20.50;42.28
78896;HTU21D;68284;59.124;37.910;2023-05-16T05:04:24;20.58;42.00
78896;HTU21D;68284;59.124;37.910;2023-05-16T05:06:51;20.68;41.53
78896;HTU21D;68284;59.124;37.910;2023-05-16T05:09:17;20.75;41.13
78896;HTU21D;68284;59.124;37.910;2023-05-16T05:11:43;20.81;40.77
78896;HTU21D;68284;59.124;37.910;2023-05-16T05:14:10;20.90;40.55
78896;HTU21D;68284;59.124;37.910;2023-05-16T05:16:36;20.98;40.23
78896;HTU21D;68284;59.124;37.910;2023-05-16T05:19:04;21.06;39.97
78896;HTU21D;68284;59.124;37.910;2023-05-16T05:21:31;21.14;39.80
78896;HTU21D;68284;59.124;37.910;2023-05-16T05:23:58;21.22;39.73
78896;HTU21D;68284;59.124;37.910;2023-05-16T05:26:30;21.32;39.76
78896;HTU21D;68284;59.124;37.910;2023-05-16T05:28:57;21.38;39.70
78896;HTU21D;68284;59.124;37.910;2023-05-16T05:31:23;21.44;39.56
78896;HTU21D;68284;59.124;37.910;2023-05-16T05:33:50;21.51;39.51
78896;HTU21D;68284;59.124;37.910;2023-05-16T05:36:16;21.62;39.30
78896;HTU21D;68284;59.124;37.910;2023-05-16T05:38:42;21.70;39.06
78896;HTU21D;68284;59.124;37.910;2023-05-16T05:41:08;21.81;39.07
78896;HTU21D;68284;59.124;37.910;2023-05-16T05:43:34;21.94;39.01
78896;HTU21D;68284;59.124;37.910;2023-05-16T05:46:00;22.07;38.95
78896;HTU21D;68284;59.124;37.910;2023-05-16T05:48:26;22.17;38.94
78896;HTU21D;68284;59.124;37.910;2023-05-16T05:50:54;22.20;38.70
78896;HTU21D;68284;59.124;37.910;2023-05-16T05:53:22;22.23;38.28
78896;HTU21D;68284;59.124;37.910;2023-05-16T05:55:48;22.24;38.16
78896;HTU21D;68284;59.124;37.910;2023-05-16T05:58:15;22.28;37.75
78896;HTU21D;68284;59.124;37.910;2023-05-16T06:00:44;22.29;37.59
78896;HTU21D;68284;59.124;37.910;2023-05-16T06:03:10;22.29;37.23
78896;HTU21D;68284;59.124;37.910;2023-05-16T06:05:38;22.31;37.13
78896;HTU21D;68284;59.124;37.910;2023-05-16T06:08:04;22.33;37.11
78896;HTU21D;68284;59.124;37.910;2023-05-16T06:10:30;22.37;37.05
78896;HTU21D;68284;59.124;37.910;2023-05-16T06:12:56;22.47;36.70
78896;HTU21D;68284;59.124;37.910;2023-05-16T06:15:24;22.57;36.25
78896;HTU21D;68284;59.124;37.910;2023-05-16T06:17:51;22.64;36.04
78896;HTU21D;68284;59.124;37.910;2023-05-16T06:20:17;22.70;35.83
78896;HTU21D;68284;59.124;37.910;2023-05-16T06:22:43;22.78;35.58
78896;HTU21D;68284;59.124;37.910;2023-05-16T06:25:14;22.83;35.47
78896;HTU21D;68284;59.124;37.910;2023-05-16T06:27:41;22.86;34.83
78896;HTU21D;68284;59.124;37.910;2023-05-16T06:30:07;22.84;34.04
78896;HTU21D;68284;59.124;37.910;2023-05-16T06:32:33;22.79;33.30
78896;HTU21D;68284;59.124;37.910;2023-05-16T06:35:00;22.71;32.52
78896;HTU21D;68284;59.124;37.910;2023-05-16T06:37:26;22.63;32.01
78896;HTU21D;68284;59.124;37.910;2023-05-16T06:39:52;22.61;31.88
78896;HTU21D;68284;59.124;37.910;2023-05-16T06:42:20;22.58;31.46
78896;HTU21D;68284;59.124;37.910;2023-05-16T06:44:48;22.60;31.35
78896;HTU21D;68284;59.124;37.910;2023-05-16T06:47:16;22.62;31.29
78896;HTU21D;68284;59.124;37.910;2023-05-16T06:49:44;22.71;31.16
78896;HTU21D;68284;59.124;37.910;2023-05-16T06:52:10;22.75;30.85
78896;HTU21D;68284;59.124;37.910;2023-05-16T06:54:37;22.79;31.29
78896;HTU21D;68284;59.124;37.910;2023-05-16T06:57:08;22.85;31.12
78896;HTU21D;68284;59.124;37.910;2023-05-16T06:59:34;22.93;30.90
78896;HTU21D;68284;59.124;37.910;2023-05-16T07:02:01;23.02;30.77
78896;HTU21D;68284;59.124;37.910;2023-05-16T07:04:27;23.09;30.54
78896;HTU21D;68284;59.124;37.910;2023-05-16T07:06:54;23.12;30.31
78896;HTU21D;68284;59.124;37.910;2023-05-16T07:09:20;23.18;30.13
78896;HTU21D;68284;59.124;37.910;2023-05-16T07:11:47;23.23;29.70
78896;HTU21D;68284;59.124;37.910;2023-05-16T07:14:13;23.28;29.46
78896;HTU21D;68284;59.124;37.910;2023-05-16T07:16:39;23.29;29.48
78896;HTU21D;68284;59.124;37.910;2023-05-16T07:19:08;23.23;29.53
78896;HTU21D;68284;59.124;37.910;2023-05-16T07:21:34;23.21;29.72
78896;HTU21D;68284;59.124;37.910;2023-05-16T07:24:00;23.25;29.75
78896;HTU21D;68284;59.124;37.910;2023-05-16T07:26:32;23.28;29.58
78896;HTU21D;68284;59.124;37.910;2023-05-16T07:29:00;23.31;29.51
78896;HTU21D;68284;59.124;37.910;2023-05-16T07:31:27;23.36;29.57
78896;HTU21D;68284;59.124;37.910;2023-05-16T07:33:54;23.36;29.61
78896;HTU21D;68284;59.124;37.910;2023-05-16T07:36:20;23.39;29.77
78896;HTU21D;68284;59.124;37.910;2023-05-16T07:38:46;23.41;29.68
78896;HTU21D;68284;59.124;37.910;2023-05-16T07:41:14;23.45;29.64
78896;HTU21D;68284;59.124;37.910;2023-05-16T07:43:41;23.52;29.80
78896;HTU21D;68284;59.124;37.910;2023-05-16T07:46:09;23.56;29.40
78896;HTU21D;68284;59.124;37.910;2023-05-16T07:48:36;23.61;29.48
78896;HTU21D;68284;59.124;37.910;2023-05-16T07:51:04;23.62;29.47
78896;HTU21D;68284;59.124;37.910;2023-05-16T07:53:31;23.61;29.03
78896;HTU21D;68284;59.124;37.910;2023-05-16T07:55:57;23.58;28.74
78896;HTU21D;68284;59.124;37.910;2023-05-16T07:58:23;23.57;28.82
78896;HTU21D;68284;59.124;37.910;2023-05-16T08:00:49;23.59;28.40
78896;HTU21D;68284;59.124;37.910;2023-05-16T08:03:17;23.59;28.22
78896;HTU21D;68284;59.124;37.910;2023-05-16T08:05:44;23.61;28.30
78896;HTU21D;68284;59.124;37.910;2023-05-16T08:08:10;23.66;28.21
78896;HTU21D;68284;59.124;37.910;2023-05-16T08:10:36;23.67;27.83
78896;HTU21D;68284;59.124;37.910;2023-05-16T08:13:05;23.67;27.78
78896;HTU21D;68284;59.124;37.910;2023-05-16T08:15:31;23.70;28.23
78896;HTU21D;68284;59.124;37.910;2023-05-16T08:17:58;23.82;28.03
78896;HTU21D;68284;59.124;37.910;2023-05-16T08:20:25;23.95;27.57
78896;HTU21D;68284;59.124;37.910;2023-05-16T08:22:53;24.01;27.38
78896;HTU21D;68284;59.124;37.910;2023-05-16T08:25:25;24.06;27.20
78896;HTU21D;68284;59.124;37.910;2023-05-16T08:27:51;24.11;27.26
78896;HTU21D;68284;59.124;37.910;2023-05-16T08:30:17;24.20;27.21
78896;HTU21D;68284;59.124;37.910;2023-05-16T08:32:44;24.30;26.87
78896;HTU21D;68284;59.124;37.910;2023-05-16T08:35:11;24.27;26.75
78896;HTU21D;68284;59.124;37.910;2023-05-16T08:37:37;24.24;26.81
78896;HTU21D;68284;59.124;37.910;2023-05-16T08:40:07;24.20;26.84
78896;HTU21D;68284;59.124;37.910;2023-05-16T08:42:41;24.23;26.81
78896;HTU21D;68284;59.124;37.910;2023-05-16T08:45:08;24.23;26.56
78896;HTU21D;68284;59.124;37.910;2023-05-16T08:47:35;24.20;26.62
78896;HTU21D;68284;59.124;37.910;2023-05-16T08:50:08;24.24;26.24
78896;HTU21D;68284;59.124;37.910;2023-05-16T08:52:37;24.24;26.49
78896;HTU21D;68284;59.124;37.910;2023-05-16T08:55:04;24.34;26.30
78896;HTU21D;68284;59.124;37.910;2023-05-16T08:57:31;24.45;26.22
78896;HTU21D;68284;59.124;37.910;2023-05-16T08:59:59;24.60;26.17
78896;HTU21D;68284;59.124;37.910;2023-05-16T09:02:27;24.76;26.00
78896;HTU21D;68284;59.124;37.910;2023-05-16T09:04:53;24.84;25.56
78896;HTU21D;68284;59.124;37.910;2023-05-16T09:07:22;24.85;25.13
78896;HTU21D;68284;59.124;37.910;2023-05-16T09:10:02;24.80;24.60
78896;HTU21D;68284;59.124;37.910;2023-05-16T09:12:28;24.82;24.82
78896;HTU21D;68284;59.124;37.910;2023-05-16T09:14:57;24.84;25.20
78896;HTU21D;68284;59.124;37.910;2023-05-16T09:17:35;24.86;25.21
78896;HTU21D;68284;59.124;37.910;2023-05-16T09:20:16;24.82;25.35
78896;HTU21D;68284;59.124;37.910;2023-05-16T09:22:57;24.74;25.88
78896;HTU21D;68284;59.124;37.910;2023-05-16T09:25:29;24.65;26.44
78896;HTU21D;68284;59.124;37.910;2023-05-16T09:27:59;24.58;26.70
78896;HTU21D;68284;59.124;37.910;2023-05-16T09:30:31;24.54;26.33
78896;HTU21D;68284;59.124;37.910;2023-05-16T09:33:01;24.49;25.92
78896;HTU21D;68284;59.124;37.910;2023-05-16T09:35:27;24.51;25.34
78896;HTU21D;68284;59.124;37.910;2023-05-16T09:37:54;24.57;25.11
78896;HTU21D;68284;59.124;37.910;2023-05-16T09:40:22;24.71;25.23
78896;HTU21D;68284;59.124;37.910;2023-05-16T09:43:06;24.79;25.10
78896;HTU21D;68284;59.124;37.910;2023-05-16T09:45:35;24.85;25.21
78896;HTU21D;68284;59.124;37.910;2023-05-16T09:48:08;24.89;25.43
78896;HTU21D;68284;59.124;37.910;2023-05-16T09:50:39;24.95;25.36
78896;HTU21D;68284;59.124;37.910;2023-05-16T09:53:12;24.97;25.25
78896;HTU21D;68284;59.124;37.910;2023-05-16T09:55:41;24.93;25.30
78896;HTU21D;68284;59.124;37.910;2023-05-16T09:58:07;24.88;25.52
78896;HTU21D;68284;59.124;37.910;2023-05-16T10:00:33;24.79;25.48
78896;HTU21D;68284;59.124;37.910;2023-05-16T10:03:01;24.72;25.62
78896;HTU21D;68284;59.124;37.910;2023-05-16T10:05:33;24.65;25.72
78896;HTU21D;68284;59.124;37.910;2023-05-16T10:08:02;24.62;25.95
78896;HTU21D;68284;59.124;37.910;2023-05-16T10:10:31;24.63;25.80
78896;HTU21D;68284;59.124;37.910;2023-05-16T10:13:04;24.66;25.81
78896;HTU21D;68284;59.124;37.910;2023-05-16T10:15:40;24.69;25.87
78896;HTU21D;68284;59.124;37.910;2023-05-16T10:18:08;24.83;25.73
78896;HTU21D;68284;59.124;37.910;2023-05-16T10:20:43;25.01;25.62
78896;HTU21D;68284;59.124;37.910;2023-05-16T10:23:16;25.34;25.27
78896;HTU21D;68284;59.124;37.910;2023-05-16T10:25:48;25.71;24.58
78896;HTU21D;68284;59.124;37.910;2023-05-16T10:28:15;26.10;24.23
78896;HTU21D;68284;59.124;37.910;2023-05-16T10:30:45;26.47;23.62
78896;HTU21D;68284;59.124;37.910;2023-05-16T10:33:15;26.79;23.34
78896;HTU21D;68284;59.124;37.910;2023-05-16T10:35:43;27.10;23.21
78896;HTU21D;68284;59.124;37.910;2023-05-16T10:38:15;27.31;22.72
78896;HTU21D;68284;59.124;37.910;2023-05-16T10:40:48;27.54;22.18
78896;HTU21D;68284;59.124;37.910;2023-05-16T10:43:26;27.69;21.69
78896;HTU21D;68284;59.124;37.910;2023-05-16T10:46:13;27.90;21.00
78896;HTU21D;68284;59.124;37.910;2023-05-16T10:48:43;28.04;20.86
78896;HTU21D;68284;59.124;37.910;2023-05-16T10:53:52;28.50;19.61
78896;HTU21D;68284;59.124;37.910;2023-05-16T10:56:25;28.63;18.85
78896;HTU21D;68284;59.124;37.910;2023-05-16T10:58:54;28.82;18.46
78896;HTU21D;68284;59.124;37.910;2023-05-16T11:01:26;29.16;17.90
78896;HTU21D;68284;59.124;37.910;2023-05-16T11:04:08;29.47;17.28
78896;HTU21D;68284;59.124;37.910;2023-05-16T11:06:43;29.73;16.69
78896;HTU21D;68284;59.124;37.910;2023-05-16T11:17:07;31.25;15.26
78896;HTU21D;68284;59.124;37.910;2023-05-16T11:19:58;31.80;14.89
78896;HTU21D;68284;59.124;37.910;2023-05-16T11:22:28;32.22;14.48
78896;HTU21D;68284;59.124;37.910;2023-05-16T11:25:07;32.50;14.07
78896;HTU21D;68284;59.124;37.910;2023-05-16T11:27:46;32.85;13.20
78896;HTU21D;68284;59.124;37.910;2023-05-16T11:30:14;33.17;12.45
78896;HTU21D;68284;59.124;37.910;2023-05-16T11:32:42;33.46;11.55
78896;HTU21D;68284;59.124;37.910;2023-05-16T11:35:28;33.75;11.18
78896;HTU21D;68284;59.124;37.910;2023-05-16T11:37:56;33.96;10.86
78896;HTU21D;68284;59.124;37.910;2023-05-16T11:40:23;34.07;11.26
78896;HTU21D;68284;59.124;37.910;2023-05-16T11:42:54;34.15;10.94
78896;HTU21D;68284;59.124;37.910;2023-05-16T11:45:21;34.27;12.79
78896;HTU21D;68284;59.124;37.910;2023-05-16T11:47:51;34.53;12.10
78896;HTU21D;68284;59.124;37.910;2023-05-16T11:50:20;34.78;11.72
78896;HTU21D;68284;59.124;37.910;2023-05-16T11:52:49;34.95;11.34
78896;HTU21D;68284;59.124;37.910;2023-05-16T11:55:23;35.04;11.56
78896;HTU21D;68284;59.124;37.910;2023-05-16T11:57:52;35.15;11.65
78896;HTU21D;68284;59.124;37.910;2023-05-16T12:00:34;35.28;11.57
78896;HTU21D;68284;59.124;37.910;2023-05-16T12:03:03;35.28;11.12
78896;HTU21D;68284;59.124;37.910;2023-05-16T12:05:35;35.08;11.28
78896;HTU21D;68284;59.124;37.910;2023-05-16T12:08:01;35.00;11.65
78896;HTU21D;68284;59.124;37.910;2023-05-16T12:10:31;35.16;11.59
78896;HTU21D;68284;59.124;37.910;2023-05-16T12:13:03;35.36;11.62
78896;HTU21D;68284;59.124;37.910;2023-05-16T12:15:31;35.49;11.61
78896;HTU21D;68284;59.124;37.910;2023-05-16T12:17:59;35.70;11.88
78896;HTU21D;68284;59.124;37.910;2023-05-16T12:20:25;35.96;11.49
78896;HTU21D;68284;59.124;37.910;2023-05-16T12:22:56;36.18;11.72
78896;HTU21D;68284;59.124;37.910;2023-05-16T12:25:33;36.54;11.04
78896;HTU21D;68284;59.124;37.910;2023-05-16T12:28:06;36.72;10.96
78896;HTU21D;68284;59.124;37.910;2023-05-16T12:30:43;36.95;10.62
78896;HTU21D;68284;59.124;37.910;2023-05-16T12:33:11;36.98;10.43
78896;HTU21D;68284;59.124;37.910;2023-05-16T12:35:43;36.96;10.59
78896;HTU21D;68284;59.124;37.910;2023-05-16T12:38:11;37.03;11.01
78896;HTU21D;68284;59.124;37.910;2023-05-16T12:40:40;37.19;11.58
78896;HTU21D;68284;59.124;37.910;2023-05-16T12:43:33;37.48;10.78
78896;HTU21D;68284;59.124;37.910;2023-05-16T12:46:24;37.49;10.65
78896;HTU21D;68284;59.124;37.910;2023-05-16T12:49:01;37.63;10.56
78896;HTU21D;68284;59.124;37.910;2023-05-16T12:51:30;37.82;10.11
78896;HTU21D;68284;59.124;37.910;2023-05-16T12:54:09;37.81;10.29
78896;HTU21D;68284;59.124;37.910;2023-05-16T12:56:40;37.94;10.17
78896;HTU21D;68284;59.124;37.910;2023-05-16T12:59:07;38.11;9.69
78896;HTU21D;68284;59.124;37.910;2023-05-16T13:01:34;37.92;9.57
78896;HTU21D;68284;59.124;37.910;2023-05-16T13:04:24;37.76;9.42
78896;HTU21D;68284;59.124;37.910;2023-05-16T13:07:13;37.67;9.63
78896;HTU21D;68284;59.124;37.910;2023-05-16T13:10:22;37.58;9.70
78896;HTU21D;68284;59.124;37.910;2023-05-16T13:13:19;37.16;10.08
78896;HTU21D;68284;59.124;37.910;2023-05-16T13:15:46;36.91;10.30
78896;HTU21D;68284;59.124;37.910;2023-05-16T13:18:15;36.68;10.45
78896;HTU21D;68284;59.124;37.910;2023-05-16T13:21:07;36.75;10.43
78896;HTU21D;68284;59.124;37.910;2023-05-16T13:23:36;36.82;10.40
78896;HTU21D;68284;59.124;37.910;2023-05-16T13:26:08;36.85;10.25
78896;HTU21D;68284;59.124;37.910;2023-05-16T13:28:50;36.60;10.30
78896;HTU21D;68284;59.124;37.910;2023-05-16T13:31:28;36.17;10.56
78896;HTU21D;68284;59.124;37.910;2023-05-16T13:34:00;35.70;10.86
78896;HTU21D;68284;59.124;37.910;2023-05-16T13:36:31;35.24;11.27
78896;HTU21D;68284;59.124;37.910;2023-05-16T13:39:03;35.07;11.51
78896;HTU21D;68284;59.124;37.910;2023-05-16T13:41:34;35.19;11.52
78896;HTU21D;68284;59.124;37.910;2023-05-16T13:44:08;35.19;11.30
78896;HTU21D;68284;59.124;37.910;2023-05-16T13:46:40;34.91;11.49
78896;HTU21D;68284;59.124;37.910;2023-05-16T13:49:12;34.78;11.65
78896;HTU21D;68284;59.124;37.910;2023-05-16T13:51:45;35.01;11.60
78896;HTU21D;68284;59.124;37.910;2023-05-16T13:54:18;35.03;11.60
78896;HTU21D;68284;59.124;37.910;2023-05-16T13:56:49;34.98;11.74
78896;HTU21D;68284;59.124;37.910;2023-05-16T13:59:22;34.93;11.67
78896;HTU21D;68284;59.124;37.910;2023-05-16T14:01:55;34.84;11.86
78896;HTU21D;68284;59.124;37.910;2023-05-16T14:04:28;34.86;11.96
78896;HTU21D;68284;59.124;37.910;2023-05-16T14:07:07;35.06;11.86
78896;HTU21D;68284;59.124;37.910;2023-05-16T14:09:38;35.11;11.66
78896;HTU21D;68284;59.124;37.910;2023-05-16T14:12:22;35.00;11.52
78896;HTU21D;68284;59.124;37.910;2023-05-16T14:15:05;34.97;11.65
78896;HTU21D;68284;59.124;37.910;2023-05-16T14:17:39;35.19;11.68
78896;HTU21D;68284;59.124;37.910;2023-05-16T14:20:18;35.45;11.33
78896;HTU21D;68284;59.124;37.910;2023-05-16T14:22:58;35.90;10.85
78896;HTU21D;68284;59.124;37.910;2023-05-16T14:25:34;36.22;10.52
78896;HTU21D;68284;59.124;37.910;2023-05-16T14:28:29;36.47;10.26
78896;HTU21D;68284;59.124;37.910;2023-05-16T14:31:05;36.73;10.15
78896;HTU21D;68284;59.124;37.910;2023-05-16T14:33:49;36.88;10.00
78896;HTU21D;68284;59.124;37.910;2023-05-16T14:36:16;37.19;9.73
78896;HTU21D;68284;59.124;37.910;2023-05-16T14:38:44;37.35;9.27
78896;HTU21D;68284;59.124;37.910;2023-05-16T14:41:16;36.97;9.41
78896;HTU21D;68284;59.124;37.910;2023-05-16T14:43:45;36.49;9.72
78896;HTU21D;68284;59.124;37.910;2023-05-16T14:46:40;36.41;9.86
78896;HTU21D;68284;59.124;37.910;2023-05-16T14:49:15;36.33;9.69
78896;HTU21D;68284;59.124;37.910;2023-05-16T14:51:42;36.07;9.85
78896;HTU21D;68284;59.124;37.910;2023-05-16T14:54:15;35.92;10.01
78896;HTU21D;68284;59.124;37.910;2023-05-16T14:56:55;35.87;10.01
78896;HTU21D;68284;59.124;37.910;2023-05-16T14:59:24;35.73;10.24
78896;HTU21D;68284;59.124;37.910;2023-05-16T15:01:53;35.77;10.30
78896;HTU21D;68284;59.124;37.910;2023-05-16T15:04:20;35.85;10.52
78896;HTU21D;68284;59.124;37.910;2023-05-16T15:06:47;36.04;10.19
78896;HTU21D;68284;59.124;37.910;2023-05-16T15:09:14;36.01;9.96
78896;HTU21D;68284;59.124;37.910;2023-05-16T15:11:41;35.97;9.95
78896;HTU21D;68284;59.124;37.910;2023-05-16T15:14:07;36.07;9.88
78896;HTU21D;68284;59.124;37.910;2023-05-16T15:16:36;36.06;9.85
78896;HTU21D;68284;59.124;37.910;2023-05-16T15:19:04;36.16;9.78
78896;HTU21D;68284;59.124;37.910;2023-05-16T15:21:31;36.38;9.73
78896;HTU21D;68284;59.124;37.910;2023-05-16T15:23:58;36.63;9.76
78896;HTU21D;68284;59.124;37.910;2023-05-16T15:26:37;36.85;9.43
78896;HTU21D;68284;59.124;37.910;2023-05-16T15:29:09;36.96;9.39
78896;HTU21D;68284;59.124;37.910;2023-05-16T15:31:41;36.82;9.28
78896;HTU21D;68284;59.124;37.910;2023-05-16T15:34:12;36.54;9.65
78896;HTU21D;68284;59.124;37.910;2023-05-16T15:36:43;36.45;9.95
78896;HTU21D;68284;59.124;37.910;2023-05-16T15:39:15;36.49;9.89